sensor_id;sensor_type;location;lat;lon;timestamp;pressure;altitude;pressure_sealevel;temperature;humidity
13486;BME280;6815;59.336;17.998;2024-01-16T00:01:06;92096.47;;;-145.37;73.06
13486;BME280;6815;59.336;17.998;2024-01-16T00:03:32;92011.63;;;-145.37;72.89
13486;BME280;6815;59.336;17.998;2024-01-16T00:05:57;91969.22;;;-145.37;73.56
13486;BME280;6815;59.336;17.998;2024-01-16T00:08:23;92088.38;;;-145.37;73.16
13486;BME280;6815;59.336;17.998;2024-01-16T00:10:50;92084.34;;;-145.37;72.33
13486;BME280;6815;59.336;17.998;2024-01-16T00:13:16;92098.47;;;-145.37;73.42
13486;BME280;6815;59.336;17.998;2024-01-16T00:15:42;91991.44;;;-145.37;72.79
13486;BME280;6815;59.336;17.998;2024-01-16T00:18:08;92082.31;;;-145.37;72.21
13486;BME280;6815;59.336;17.998;2024-01-16T00:20:34;92060.09;;;-145.37;72.83
13486;BME280;6815;59.336;17.998;2024-01-16T00:23:00;92120.69;;;-145.37;72.96
13486;BME280;6815;59.336;17.998;2024-01-16T00:25:25;92050.00;;;-145.37;72.46
13486;BME280;6815;59.336;17.998;2024-01-16T00:27:51;92078.28;;;-145.37;73.28
13486;BME280;6815;59.336;17.998;2024-01-16T00:30:17;92086.38;;;-145.37;72.64
13486;BME280;6815;59.336;17.998;2024-01-16T00:32:43;92058.09;;;-145.37;72.98
13486;BME280;6815;59.336;17.998;2024-01-16T00:35:08;92066.16;;;-145.37;71.63
13486;BME280;6815;59.336;17.998;2024-01-16T00:37:36;91983.38;;;-145.37;72.65
13486;BME280;6815;59.336;17.998;2024-01-16T00:40:02;92056.06;;;-145.37;72.48
13486;BME280;6815;59.336;17.998;2024-01-16T00:42:30;91951.06;;;-145.37;72.31
13486;BME280;6815;59.336;17.998;2024-01-16T00:44:55;92037.88;;;-145.37;72.76
13486;BME280;6815;59.336;17.998;2024-01-16T00:47:20;92064.16;;;-145.37;72.95
13486;BME280;6815;59.336;17.998;2024-01-16T00:49:46;92001.53;;;-145.37;71.73
13486;BME280;6815;59.336;17.998;2024-01-16T00:52:12;92084.34;;;-145.37;71.65
13486;BME280;6815;59.336;17.998;2024-01-16T00:54:38;92066.16;;;-145.37;71.84
13486;BME280;6815;59.336;17.998;2024-01-16T00:57:04;92084.34;;;-145.37;71.46
13486;BME280;6815;59.336;17.998;2024-01-16T00:59:31;92092.41;;;-145.37;70.74
13486;BME280;6815;59.336;17.998;2024-01-16T01:01:56;91981.34;;;-145.37;71.27
13486;BME280;6815;59.336;17.998;2024-01-16T01:04:21;92064.16;;;-145.37;71.88
13486;BME280;6815;59.336;17.998;2024-01-16T01:06:47;92092.41;;;-145.37;71.62
13486;BME280;6815;59.336;17.998;2024-01-16T01:09:12;92015.69;;;-145.37;71.30
13486;BME280;6815;59.336;17.998;2024-01-16T01:11:38;92005.56;;;-145.37;70.30
13486;BME280;6815;59.336;17.998;2024-01-16T01:14:04;92017.69;;;-145.37;71.29
13486;BME280;6815;59.336;17.998;2024-01-16T01:16:29;92076.25;;;-145.37;71.48
13486;BME280;6815;59.336;17.998;2024-01-16T01:18:55;92080.31;;;-145.37;70.82
13486;BME280;6815;59.336;17.998;2024-01-16T01:21:20;92021.72;;;-145.37;71.30
13486;BME280;6815;59.336;17.998;2024-01-16T01:23:46;92078.28;;;-145.37;70.28
13486;BME280;6815;59.336;17.998;2024-01-16T01:26:11;92005.56;;;-145.37;70.55
13486;BME280;6815;59.336;17.998;2024-01-16T01:28:39;92076.25;;;-145.37;70.45
13486;BME280;6815;59.336;17.998;2024-01-16T01:31:08;92092.41;;;-145.37;70.19
13486;BME280;6815;59.336;17.998;2024-01-16T01:33:33;92090.41;;;-145.37;69.64
13486;BME280;6815;59.336;17.998;2024-01-16T01:35:59;92082.31;;;-145.37;69.73
13486;BME280;6815;59.336;17.998;2024-01-16T01:38:24;92082.31;;;-145.37;70.23
13486;BME280;6815;59.336;17.998;2024-01-16T01:40:49;92702.41;;;-145.37;69.69
13486;BME280;6815;59.336;17.998;2024-01-16T01:43:25;91965.19;;;-145.37;68.88
13486;BME280;6815;59.336;17.998;2024-01-16T01:46:00;91989.41;;;-145.37;69.46
13486;BME280;6815;59.336;17.998;2024-01-16T01:48:32;92070.19;;;-145.37;69.44
13486;BME280;6815;59.336;17.998;2024-01-16T01:50:59;92078.28;;;-145.37;68.46
13486;BME280;6815;59.336;17.998;2024-01-16T01:53:25;92066.16;;;-145.37;68.95
13486;BME280;6815;59.336;17.998;2024-01-16T01:55:51;92054.03;;;-145.37;68.98
13486;BME280;6815;59.336;17.998;2024-01-16T01:58:16;92013.66;;;-145.37;67.54
13486;BME280;6815;59.336;17.998;2024-01-16T02:00:42;92334.78;;;-145.37;68.12
13486;BME280;6815;59.336;17.998;2024-01-16T02:03:08;92094.44;;;-145.37;67.92
13486;BME280;6815;59.336;17.998;2024-01-16T02:05:33;92058.09;;;-145.37;68.36
13486;BME280;6815;59.336;17.998;2024-01-16T02:07:59;92108.56;;;-145.37;67.91
13486;BME280;6815;59.336;17.998;2024-01-16T02:10:25;92086.38;;;-145.37;68.33
13486;BME280;6815;59.336;17.998;2024-01-16T02:12:51;92086.38;;;-145.37;67.80
13486;BME280;6815;59.336;17.998;2024-01-16T02:15:16;92035.88;;;-145.37;67.94
13486;BME280;6815;59.336;17.998;2024-01-16T02:17:42;92005.56;;;-145.37;67.38
13486;BME280;6815;59.336;17.998;2024-01-16T02:20:08;92072.22;;;-145.37;68.09
13486;BME280;6815;59.336;17.998;2024-01-16T02:22:35;91991.44;;;-145.37;66.85
13486;BME280;6815;59.336;17.998;2024-01-16T02:25:02;92058.09;;;-145.37;66.79
13486;BME280;6815;59.336;17.998;2024-01-16T02:27:27;92045.97;;;-145.37;67.26
13486;BME280;6815;59.336;17.998;2024-01-16T02:29:53;92048.00;;;-145.37;66.68
13486;BME280;6815;59.336;17.998;2024-01-16T02:32:18;92062.13;;;-145.37;66.85
13486;BME280;6815;59.336;17.998;2024-01-16T02:34:43;91955.09;;;-145.37;66.58
13486;BME280;6815;59.336;17.998;2024-01-16T02:37:09;92096.47;;;-145.37;67.68
13486;BME280;6815;59.336;17.998;2024-01-16T02:39:34;92086.38;;;-145.37;66.47
13486;BME280;6815;59.336;17.998;2024-01-16T02:42:00;92050.00;;;-145.37;65.86
13486;BME280;6815;59.336;17.998;2024-01-16T02:44:26;91993.47;;;-145.37;64.91
13486;BME280;6815;59.336;17.998;2024-01-16T02:46:51;92094.44;;;-145.37;65.29
13486;BME280;6815;59.336;17.998;2024-01-16T02:49:17;91983.38;;;-145.37;67.10
13486;BME280;6815;59.336;17.998;2024-01-16T02:51:42;91914.69;;;-145.37;66.86
13486;BME280;6815;59.336;17.998;2024-01-16T02:54:08;91989.41;;;-145.37;66.45
13486;BME280;6815;59.336;17.998;2024-01-16T02:56:34;91783.44;;;-145.37;67.12
13486;BME280;6815;59.336;17.998;2024-01-16T02:59:00;92070.19;;;-145.37;66.49
13486;BME280;6815;59.336;17.998;2024-01-16T03:01:25;91969.22;;;-145.37;67.93
13486;BME280;6815;59.336;17.998;2024-01-16T03:03:51;92056.06;;;-145.37;67.79
13486;BME280;6815;59.336;17.998;2024-01-16T03:06:25;92050.00;;;-145.37;66.96
13486;BME280;6815;59.336;17.998;2024-01-16T03:08:51;92045.97;;;-145.37;66.66
13486;BME280;6815;59.336;17.998;2024-01-16T03:11:17;92052.03;;;-145.37;67.42
13486;BME280;6815;59.336;17.998;2024-01-16T03:13:43;91926.81;;;-145.37;67.34
13486;BME280;6815;59.336;17.998;2024-01-16T03:16:10;92054.03;;;-145.37;67.59
13486;BME280;6815;59.336;17.998;2024-01-16T03:18:36;92037.88;;;-145.37;66.77
13486;BME280;6815;59.336;17.998;2024-01-16T03:21:03;91997.50;;;-145.37;66.73
13486;BME280;6815;59.336;17.998;2024-01-16T03:23:29;92015.69;;;-145.37;67.42
13486;BME280;6815;59.336;17.998;2024-01-16T03:25:54;92045.97;;;-145.37;65.82
13486;BME280;6815;59.336;17.998;2024-01-16T03:28:20;92054.03;;;-145.37;65.97
13486;BME280;6815;59.336;17.998;2024-01-16T03:30:46;91983.38;;;-145.37;65.18
13486;BME280;6815;59.336;17.998;2024-01-16T03:33:11;92054.03;;;-145.37;67.20
13486;BME280;6815;59.336;17.998;2024-01-16T03:35:37;92084.34;;;-145.37;65.84
13486;BME280;6815;59.336;17.998;2024-01-16T03:38:02;92056.06;;;-145.37;66.27
13486;BME280;6815;59.336;17.998;2024-01-16T03:40:28;91971.25;;;-145.37;66.03
13486;BME280;6815;59.336;17.998;2024-01-16T03:42:59;92074.25;;;-145.37;65.75
13486;BME280;6815;59.336;17.998;2024-01-16T03:45:24;92054.03;;;-145.37;64.96
13486;BME280;6815;59.336;17.998;2024-01-16T03:47:50;92039.91;;;-145.37;65.87
13486;BME280;6815;59.336;17.998;2024-01-16T03:50:16;92013.66;;;-145.37;66.92
13486;BME280;6815;59.336;17.998;2024-01-16T03:52:41;92066.16;;;-145.37;65.58
13486;BME280;6815;59.336;17.998;2024-01-16T03:55:07;91926.81;;;-145.37;66.28
13486;BME280;6815;59.336;17.998;2024-01-16T03:57:32;92086.38;;;-145.37;65.18
13486;BME280;6815;59.336;17.998;2024-01-16T03:59:58;92080.31;;;-145.37;65.14
13486;BME280;6815;59.336;17.998;2024-01-16T04:02:23;92262.06;;;-145.37;65.04
13486;BME280;6815;59.336;17.998;2024-01-16T04:04:49;92056.06;;;-145.37;65.96
13486;BME280;6815;59.336;17.998;2024-01-16T04:07:14;92017.69;;;-145.37;66.76
13486;BME280;6815;59.336;17.998;2024-01-16T04:09:42;92062.13;;;-145.37;66.78
13486;BME280;6815;59.336;17.998;2024-01-16T04:12:08;91963.16;;;-145.37;66.87
13486;BME280;6815;59.336;17.998;2024-01-16T04:14:33;92064.16;;;-145.37;66.15
13486;BME280;6815;59.336;17.998;2024-01-16T04:16:59;92076.25;;;-145.37;65.40
13486;BME280;6815;59.336;17.998;2024-01-16T04:19:25;92078.28;;;-145.37;66.30
13486;BME280;6815;59.336;17.998;2024-01-16T04:21:50;92084.34;;;-145.37;65.69
13486;BME280;6815;59.336;17.998;2024-01-16T04:24:16;91977.31;;;-145.37;65.73
13486;BME280;6815;59.336;17.998;2024-01-16T04:26:41;91850.06;;;-145.37;65.80
13486;BME280;6815;59.336;17.998;2024-01-16T04:29:07;91951.06;;;-145.37;66.42
13486;BME280;6815;59.336;17.998;2024-01-16T04:31:38;92052.03;;;-145.37;65.96
13486;BME280;6815;59.336;17.998;2024-01-16T04:34:04;92041.94;;;-145.37;66.83
13486;BME280;6815;59.336;17.998;2024-01-16T04:36:29;92092.41;;;-145.37;66.02
13486;BME280;6815;59.336;17.998;2024-01-16T04:38:55;92084.34;;;-145.37;66.80
13486;BME280;6815;59.336;17.998;2024-01-16T04:41:21;92088.38;;;-145.37;67.47
13486;BME280;6815;59.336;17.998;2024-01-16T04:43:47;92096.47;;;-145.37;66.59
13486;BME280;6815;59.336;17.998;2024-01-16T04:46:14;92043.94;;;-145.37;67.45
13486;BME280;6815;59.336;17.998;2024-01-16T04:48:40;92066.16;;;-145.37;67.21
13486;BME280;6815;59.336;17.998;2024-01-16T04:51:06;92052.03;;;-145.37;65.98
13486;BME280;6815;59.336;17.998;2024-01-16T04:53:33;92082.31;;;-145.37;66.20
13486;BME280;6815;59.336;17.998;2024-01-16T04:55:58;91900.56;;;-145.37;65.71
13486;BME280;6815;59.336;17.998;2024-01-16T04:58:24;91955.09;;;-145.37;65.89
13486;BME280;6815;59.336;17.998;2024-01-16T05:00:49;92094.44;;;-145.37;66.56
13486;BME280;6815;59.336;17.998;2024-01-16T05:03:15;92021.72;;;-145.37;66.41
13486;BME280;6815;59.336;17.998;2024-01-16T05:05:41;92035.88;;;-145.37;66.28
13486;BME280;6815;59.336;17.998;2024-01-16T05:08:06;91977.31;;;-145.37;65.11
13486;BME280;6815;59.336;17.998;2024-01-16T05:10:32;92102.53;;;-145.37;65.75
13486;BME280;6815;59.336;17.998;2024-01-16T05:12:57;92524.66;;;-145.37;66.47
13486;BME280;6815;59.336;17.998;2024-01-16T05:15:23;92088.38;;;-145.37;66.17
13486;BME280;6815;59.336;17.998;2024-01-16T05:17:48;92086.38;;;-145.37;67.88
13486;BME280;6815;59.336;17.998;2024-01-16T05:20:14;92086.38;;;-145.37;67.29
13486;BME280;6815;59.336;17.998;2024-01-16T05:26:01;92080.31;;;-145.37;68.55
13486;BME280;6815;59.336;17.998;2024-01-16T05:28:27;92102.53;;;-145.37;66.64
13486;BME280;6815;59.336;17.998;2024-01-16T05:30:52;92151.00;;;-145.37;65.95
13486;BME280;6815;59.336;17.998;2024-01-16T05:36:58;92080.31;;;-145.37;65.67
13486;BME280;6815;59.336;17.998;2024-01-16T05:39:24;92039.91;;;-145.37;65.37
13486;BME280;6815;59.336;17.998;2024-01-16T05:41:49;91870.28;;;-145.37;66.49
13486;BME280;6815;59.336;17.998;2024-01-16T05:44:15;92064.16;;;-145.37;65.73
13486;BME280;6815;59.336;17.998;2024-01-16T05:46:41;92029.81;;;-145.37;66.38
13486;BME280;6815;59.336;17.998;2024-01-16T05:49:06;92017.69;;;-145.37;66.08
13486;BME280;6815;59.336;17.998;2024-01-16T05:51:32;92033.84;;;-145.37;65.74
13486;BME280;6815;59.336;17.998;2024-01-16T05:53:57;92078.28;;;-145.37;65.68
13486;BME280;6815;59.336;17.998;2024-01-16T05:56:23;92060.09;;;-145.37;66.41
13486;BME280;6815;59.336;17.998;2024-01-16T05:58:48;92092.41;;;-145.37;66.80
13486;BME280;6815;59.336;17.998;2024-01-16T06:01:14;92056.06;;;-145.37;66.48
13486;BME280;6815;59.336;17.998;2024-01-16T06:03:40;92110.59;;;-145.37;66.38
13486;BME280;6815;59.336;17.998;2024-01-16T06:06:06;92072.22;;;-145.37;66.44
13486;BME280;6815;59.336;17.998;2024-01-16T06:08:33;92064.16;;;-145.37;66.09
13486;BME280;6815;59.336;17.998;2024-01-16T06:10:58;92078.28;;;-145.37;66.26
13486;BME280;6815;59.336;17.998;2024-01-16T06:13:24;92054.03;;;-145.37;65.94
13486;BME280;6815;59.336;17.998;2024-01-16T06:15:49;92062.13;;;-145.37;66.30
13486;BME280;6815;59.336;17.998;2024-01-16T06:18:14;92361.03;;;-145.37;66.36
13486;BME280;6815;59.336;17.998;2024-01-16T06:20:40;91965.19;;;-145.37;66.93
13486;BME280;6815;59.336;17.998;2024-01-16T06:23:06;91983.38;;;-145.37;66.85
13486;BME280;6815;59.336;17.998;2024-01-16T06:25:31;92104.53;;;-145.37;65.69
13486;BME280;6815;59.336;17.998;2024-01-16T06:27:57;92015.69;;;-145.37;65.22
13486;BME280;6815;59.336;17.998;2024-01-16T06:30:22;92023.75;;;-145.37;65.98
13486;BME280;6815;59.336;17.998;2024-01-16T06:32:51;92058.09;;;-145.37;66.44
13486;BME280;6815;59.336;17.998;2024-01-16T06:35:16;92080.31;;;-145.37;64.69
13486;BME280;6815;59.336;17.998;2024-01-16T06:37:43;92078.28;;;-145.37;65.69
13486;BME280;6815;59.336;17.998;2024-01-16T06:40:09;92062.13;;;-145.37;66.81
13486;BME280;6815;59.336;17.998;2024-01-16T06:42:35;92090.41;;;-145.37;66.22
13486;BME280;6815;59.336;17.998;2024-01-16T06:45:04;92078.28;;;-145.37;66.67
13486;BME280;6815;59.336;17.998;2024-01-16T06:47:30;91951.06;;;-145.37;65.38
13486;BME280;6815;59.336;17.998;2024-01-16T06:49:56;91989.41;;;-145.37;65.22
13486;BME280;6815;59.336;17.998;2024-01-16T06:52:21;92043.94;;;-145.37;65.29
13486;BME280;6815;59.336;17.998;2024-01-16T06:54:47;91945.00;;;-145.37;66.19
13486;BME280;6815;59.336;17.998;2024-01-16T06:57:12;92043.94;;;-145.37;65.81
13486;BME280;6815;59.336;17.998;2024-01-16T06:59:38;92530.72;;;-145.37;66.04
13486;BME280;6815;59.336;17.998;2024-01-16T07:02:03;92094.44;;;-145.37;66.09
13486;BME280;6815;59.336;17.998;2024-01-16T07:04:29;92078.28;;;-145.37;66.36
13486;BME280;6815;59.336;17.998;2024-01-16T07:06:54;92048.00;;;-145.37;66.06
13486;BME280;6815;59.336;17.998;2024-01-16T07:09:20;92080.31;;;-145.37;65.62
13486;BME280;6815;59.336;17.998;2024-01-16T07:11:46;92023.75;;;-145.37;66.90
13486;BME280;6815;59.336;17.998;2024-01-16T07:14:12;92066.16;;;-145.37;66.75
13486;BME280;6815;59.336;17.998;2024-01-16T07:16:38;92029.81;;;-145.37;66.88
13486;BME280;6815;59.336;17.998;2024-01-16T07:19:04;91878.34;;;-145.37;66.31
13486;BME280;6815;59.336;17.998;2024-01-16T07:21:30;92033.84;;;-145.37;65.90
13486;BME280;6815;59.336;17.998;2024-01-16T07:23:56;92005.56;;;-145.37;66.13
13486;BME280;6815;59.336;17.998;2024-01-16T07:26:22;92043.94;;;-145.37;66.04
13486;BME280;6815;59.336;17.998;2024-01-16T07:28:48;92068.19;;;-145.37;66.88
13486;BME280;6815;59.336;17.998;2024-01-16T07:31:14;92076.25;;;-145.37;65.98
13486;BME280;6815;59.336;17.998;2024-01-16T07:33:42;91928.84;;;-145.37;65.87
13486;BME280;6815;59.336;17.998;2024-01-16T07:36:08;92048.00;;;-145.37;66.80
13486;BME280;6815;59.336;17.998;2024-01-16T07:38:34;92019.72;;;-145.37;66.14
13486;BME280;6815;59.336;17.998;2024-01-16T07:41:01;91975.28;;;-145.37;65.83
13486;BME280;6815;59.336;17.998;2024-01-16T07:43:26;92098.47;;;-145.37;65.55
13486;BME280;6815;59.336;17.998;2024-01-16T07:45:52;92197.44;;;-145.37;66.83
13486;BME280;6815;59.336;17.998;2024-01-16T07:48:17;92048.00;;;-145.37;66.46
13486;BME280;6815;59.336;17.998;2024-01-16T07:50:43;91934.91;;;-145.37;65.96
13486;BME280;6815;59.336;17.998;2024-01-16T07:53:09;92066.16;;;-145.37;67.20
13486;BME280;6815;59.336;17.998;2024-01-16T07:55:35;92082.31;;;-145.37;66.43
13486;BME280;6815;59.336;17.998;2024-01-16T07:58:00;92076.25;;;-145.37;66.68
13486;BME280;6815;59.336;17.998;2024-01-16T08:00:28;91492.63;;;-145.37;66.46
13486;BME280;6815;59.336;17.998;2024-01-16T08:02:53;92060.09;;;-145.37;66.50
13486;BME280;6815;59.336;17.998;2024-01-16T08:05:19;92015.69;;;-145.37;65.65
13486;BME280;6815;59.336;17.998;2024-01-16T08:07:47;91953.06;;;-145.37;67.59
13486;BME280;6815;59.336;17.998;2024-01-16T08:10:12;92084.34;;;-145.37;66.72
13486;BME280;6815;59.336;17.998;2024-01-16T08:12:38;91985.38;;;-145.37;67.38
13486;BME280;6815;59.336;17.998;2024-01-16T08:15:04;92052.03;;;-145.37;66.24
13486;BME280;6815;59.336;17.998;2024-01-16T08:17:30;92043.94;;;-145.37;67.92
13486;BME280;6815;59.336;17.998;2024-01-16T08:19:56;92035.88;;;-145.37;66.64
13486;BME280;6815;59.336;17.998;2024-01-16T08:22:21;91969.22;;;-145.37;66.93
13486;BME280;6815;59.336;17.998;2024-01-16T08:24:47;91904.59;;;-145.37;66.25
13486;BME280;6815;59.336;17.998;2024-01-16T08:27:12;92062.13;;;-145.37;67.04
13486;BME280;6815;59.336;17.998;2024-01-16T08:29:38;92048.00;;;-145.37;66.41
13486;BME280;6815;59.336;17.998;2024-01-16T08:32:04;92092.41;;;-145.37;67.51
13486;BME280;6815;59.336;17.998;2024-01-16T08:34:29;92090.41;;;-145.37;66.91
13486;BME280;6815;59.336;17.998;2024-01-16T08:36:55;92050.00;;;-145.37;66.84
13486;BME280;6815;59.336;17.998;2024-01-16T08:39:22;92078.28;;;-145.37;67.29
13486;BME280;6815;59.336;17.998;2024-01-16T08:41:49;92076.25;;;-145.37;67.16
13486;BME280;6815;59.336;17.998;2024-01-16T08:44:14;92080.31;;;-145.37;66.75
13486;BME280;6815;59.336;17.998;2024-01-16T08:46:40;92054.03;;;-145.37;66.03
13486;BME280;6815;59.336;17.998;2024-01-16T08:49:05;92035.88;;;-145.37;65.67
13486;BME280;6815;59.336;17.998;2024-01-16T08:51:31;92088.38;;;-145.37;66.88
13486;BME280;6815;59.336;17.998;2024-01-16T08:53:56;91967.19;;;-145.37;67.53
13486;BME280;6815;59.336;17.998;2024-01-16T08:56:22;91945.00;;;-145.37;67.32
13486;BME280;6815;59.336;17.998;2024-01-16T08:58:47;92019.72;;;-145.37;67.12
13486;BME280;6815;59.336;17.998;2024-01-16T09:01:13;92060.09;;;-145.37;67.13
13486;BME280;6815;59.336;17.998;2024-01-16T09:03:38;92088.38;;;-145.37;66.39
13486;BME280;6815;59.336;17.998;2024-01-16T09:06:04;92003.56;;;-145.37;67.10
13486;BME280;6815;59.336;17.998;2024-01-16T09:08:29;91959.13;;;-145.37;66.69
13486;BME280;6815;59.336;17.998;2024-01-16T09:10:55;91983.38;;;-145.37;66.32
13486;BME280;6815;59.336;17.998;2024-01-16T09:13:21;92050.00;;;-145.37;66.47
13486;BME280;6815;59.336;17.998;2024-01-16T09:15:47;91961.16;;;-145.37;67.13
13486;BME280;6815;59.336;17.998;2024-01-16T09:18:14;91953.06;;;-145.37;67.29
13486;BME280;6815;59.336;17.998;2024-01-16T09:20:39;91916.72;;;-145.37;67.05
13486;BME280;6815;59.336;17.998;2024-01-16T09:23:05;92052.03;;;-145.37;66.46
13486;BME280;6815;59.336;17.998;2024-01-16T09:25:30;91928.84;;;-145.37;66.17
13486;BME280;6815;59.336;17.998;2024-01-16T09:27:56;92080.31;;;-145.37;65.75
13486;BME280;6815;59.336;17.998;2024-01-16T09:30:21;92035.88;;;-145.37;66.41
13486;BME280;6815;59.336;17.998;2024-01-16T09:32:48;92039.91;;;-145.37;66.28
13486;BME280;6815;59.336;17.998;2024-01-16T09:35:14;92023.75;;;-145.37;65.81
13486;BME280;6815;59.336;17.998;2024-01-16T09:37:40;92064.16;;;-145.37;65.92
13486;BME280;6815;59.336;17.998;2024-01-16T09:40:06;92068.19;;;-145.37;65.29
13486;BME280;6815;59.336;17.998;2024-01-16T09:42:32;92094.44;;;-145.37;64.84
13486;BME280;6815;59.336;17.998;2024-01-16T09:45:00;92627.66;;;-145.37;64.91
13486;BME280;6815;59.336;17.998;2024-01-16T09:47:25;92025.78;;;-145.37;65.22
13486;BME280;6815;59.336;17.998;2024-01-16T09:49:52;92021.72;;;-145.37;66.41
13486;BME280;6815;59.336;17.998;2024-01-16T09:52:19;92011.63;;;-145.37;66.42
13486;BME280;6815;59.336;17.998;2024-01-16T09:54:45;92019.72;;;-145.37;64.88
13486;BME280;6815;59.336;17.998;2024-01-16T09:57:12;91856.13;;;-145.37;65.79
13486;BME280;6815;59.336;17.998;2024-01-16T09:59:39;92088.38;;;-145.37;65.77
13486;BME280;6815;59.336;17.998;2024-01-16T10:02:08;92043.94;;;-145.37;65.78
13486;BME280;6815;59.336;17.998;2024-01-16T10:04:35;92066.16;;;-145.37;66.29
13486;BME280;6815;59.336;17.998;2024-01-16T10:07:01;92080.31;;;-145.37;66.50
13486;BME280;6815;59.336;17.998;2024-01-16T10:09:27;92005.56;;;-145.37;66.47
13486;BME280;6815;59.336;17.998;2024-01-16T10:11:53;92072.22;;;-145.37;66.65
13486;BME280;6815;59.336;17.998;2024-01-16T10:14:20;92021.72;;;-145.37;65.75
13486;BME280;6815;59.336;17.998;2024-01-16T10:16:56;92082.31;;;-145.37;64.70
13486;BME280;6815;59.336;17.998;2024-01-16T10:19:29;92058.09;;;-145.37;64.31
13486;BME280;6815;59.336;17.998;2024-01-16T10:22:05;92052.03;;;-145.37;63.79
13486;BME280;6815;59.336;17.998;2024-01-16T10:24:31;92037.88;;;-145.37;65.01
13486;BME280;6815;59.336;17.998;2024-01-16T10:26:59;92021.72;;;-145.37;65.78
13486;BME280;6815;59.336;17.998;2024-01-16T10:29:26;91993.47;;;-145.37;65.56
13486;BME280;6815;59.336;17.998;2024-01-16T10:31:52;92009.63;;;-145.37;65.25
13486;BME280;6815;59.336;17.998;2024-01-16T10:34:22;92019.72;;;-145.37;64.26
13486;BME280;6815;59.336;17.998;2024-01-16T10:36:51;92072.22;;;-145.37;64.39
13486;BME280;6815;59.336;17.998;2024-01-16T10:39:18;92064.16;;;-145.37;64.96
13486;BME280;6815;59.336;17.998;2024-01-16T10:42:03;92086.38;;;-145.37;64.98
13486;BME280;6815;59.336;17.998;2024-01-16T10:44:29;92025.78;;;-145.37;64.71
13486;BME280;6815;59.336;17.998;2024-01-16T10:47:10;91908.63;;;-145.37;64.34
13486;BME280;6815;59.336;17.998;2024-01-16T10:49:39;92039.91;;;-145.37;64.11
13486;BME280;6815;59.336;17.998;2024-01-16T10:52:09;92054.03;;;-145.37;64.00
13486;BME280;6815;59.336;17.998;2024-01-16T10:54:37;91884.41;;;-145.37;63.77
13486;BME280;6815;59.336;17.998;2024-01-16T10:57:06;91959.13;;;-145.37;63.93
13486;BME280;6815;59.336;17.998;2024-01-16T10:59:34;92023.75;;;-145.37;64.19
13486;BME280;6815;59.336;17.998;2024-01-16T11:02:09;91878.34;;;-145.37;64.43
13486;BME280;6815;59.336;17.998;2024-01-16T11:04:38;92086.38;;;-145.37;63.96
13486;BME280;6815;59.336;17.998;2024-01-16T11:07:05;91993.47;;;-145.37;63.66
13486;BME280;6815;59.336;17.998;2024-01-16T11:09:31;92050.00;;;-145.37;63.96
13486;BME280;6815;59.336;17.998;2024-01-16T11:11:57;92054.03;;;-145.37;64.49
13486;BME280;6815;59.336;17.998;2024-01-16T11:14:24;91973.25;;;-145.37;64.27
13486;BME280;6815;59.336;17.998;2024-01-16T11:16:51;92068.19;;;-145.37;64.12
13486;BME280;6815;59.336;17.998;2024-01-16T11:19:18;92033.84;;;-145.37;63.91
13486;BME280;6815;59.336;17.998;2024-01-16T11:21:45;92712.50;;;-145.37;63.93
13486;BME280;6815;59.336;17.998;2024-01-16T11:24:12;91932.88;;;-145.37;63.70
13486;BME280;6815;59.336;17.998;2024-01-16T11:26:40;92094.44;;;-145.37;64.02
13486;BME280;6815;59.336;17.998;2024-01-16T11:31:58;92084.34;;;-145.37;62.98
13486;BME280;6815;59.336;17.998;2024-01-16T11:37:11;92070.19;;;-145.37;61.88
13486;BME280;6815;59.336;17.998;2024-01-16T11:39:36;92066.16;;;-145.37;62.06
13486;BME280;6815;59.336;17.998;2024-01-16T11:42:02;92045.97;;;-145.37;61.84
13486;BME280;6815;59.336;17.998;2024-01-16T11:44:39;92086.38;;;-145.37;62.11
13486;BME280;6815;59.336;17.998;2024-01-16T11:47:05;92064.16;;;-145.37;62.05
13486;BME280;6815;59.336;17.998;2024-01-16T11:49:31;92084.34;;;-145.37;61.76
13486;BME280;6815;59.336;17.998;2024-01-16T11:52:00;92070.19;;;-145.37;61.12
13486;BME280;6815;59.336;17.998;2024-01-16T11:54:26;92108.56;;;-145.37;60.77
13486;BME280;6815;59.336;17.998;2024-01-16T11:57:19;92066.16;;;-145.37;60.38
13486;BME280;6815;59.336;17.998;2024-01-16T12:00:01;92001.53;;;-145.37;59.89
13486;BME280;6815;59.336;17.998;2024-01-16T12:02:53;92088.38;;;-145.37;60.07
13486;BME280;6815;59.336;17.998;2024-01-16T12:05:20;92062.13;;;-145.37;60.67
13486;BME280;6815;59.336;17.998;2024-01-16T12:07:47;92110.59;;;-145.37;60.81
13486;BME280;6815;59.336;17.998;2024-01-16T12:10:17;92052.03;;;-145.37;60.58
13486;BME280;6815;59.336;17.998;2024-01-16T12:12:43;92043.94;;;-145.37;60.16
13486;BME280;6815;59.336;17.998;2024-01-16T12:15:19;91981.34;;;-145.37;61.10
13486;BME280;6815;59.336;17.998;2024-01-16T12:17:56;92082.31;;;-145.37;60.40
13486;BME280;6815;59.336;17.998;2024-01-16T12:20:23;91993.47;;;-145.37;59.56
13486;BME280;6815;59.336;17.998;2024-01-16T12:22:57;92050.00;;;-145.37;60.12
13486;BME280;6815;59.336;17.998;2024-01-16T12:25:24;92058.09;;;-145.37;59.86
13486;BME280;6815;59.336;17.998;2024-01-16T12:30:24;92033.84;;;-145.37;58.88
13486;BME280;6815;59.336;17.998;2024-01-16T12:32:49;92045.97;;;-145.37;58.53
13486;BME280;6815;59.336;17.998;2024-01-16T12:35:21;92064.16;;;-145.37;58.53
13486;BME280;6815;59.336;17.998;2024-01-16T12:38:01;92078.28;;;-145.37;59.08
13486;BME280;6815;59.336;17.998;2024-01-16T12:40:28;92080.31;;;-145.37;59.74
13486;BME280;6815;59.336;17.998;2024-01-16T12:42:53;92039.91;;;-145.37;58.96
13486;BME280;6815;59.336;17.998;2024-01-16T12:45:19;92082.31;;;-145.37;59.64
13486;BME280;6815;59.336;17.998;2024-01-16T12:47:50;92072.22;;;-145.37;59.17
13486;BME280;6815;59.336;17.998;2024-01-16T12:50:22;92064.16;;;-145.37;58.93
13486;BME280;6815;59.336;17.998;2024-01-16T12:52:50;92092.41;;;-145.37;59.29